METAR Data
IDs: Format: Raw Decoded Include TAF

Data at: 1205 UTC 21 Sep 2018

KEDC 211155Z AUTO 15005KT 6SM BR OVC006 25/25 A2994 RMK AO2
KEDC 211135Z AUTO 17005KT 7SM OVC006 25/25 A2994 RMK AO2
KEDC 211115Z AUTO 17005KT 7SM BKN006 OVC010 25/25 A2994 RMK AO2
KEDC 211055Z AUTO 17006KT 8SM BKN008 OVC012 25/25 A2993 RMK AO2
KEDC 211035Z AUTO 17006KT 8SM BKN008 OVC014 25/25 A2993 RMK AO2
KEDC 211015Z AUTO 18004KT 8SM BKN008 OVC014 25/25 A2993 RMK AO2
KEDC 210955Z AUTO 17006KT 9SM OVC008 25/25 A2993 RMK AO2
KEDC 210935Z AUTO 16006KT 9SM BKN008 OVC013 25/25 A2993 RMK AO2
KEDC 210915Z AUTO 17006KT 10SM OVC010 25/25 A2993 RMK AO2
KEDC 210855Z AUTO 18005KT 9SM BKN010 BKN016 OVC022 25/25 A2993 RMK AO2
KEDC 210835Z AUTO 18007KT 7SM FEW006 BKN010 OVC017 25/25 A2993 RMK AO2
KEDC 210815Z AUTO 19005KT 6SM BR BKN006 OVC012 25/25 A2994 RMK AO2
KEDC 210755Z AUTO 18005KT 7SM BKN006 OVC012 25/25 A2994 RMK AO2
KEDC 210735Z AUTO 18004KT 6SM BR OVC005 25/25 A2994 RMK AO2
KEDC 210715Z AUTO 17007KT 7SM OVC005 25/25 A2995 RMK AO2
KEDC 210655Z AUTO 16007KT 6SM BR OVC005 25/25 A2995 RMK AO2
KEDC 210635Z AUTO 15004KT 5SM BR OVC004 24/24 A2995 RMK AO2
KEDC 210615Z AUTO 15003KT 5SM BR OVC004 24/24 A2995 RMK AO2
KEDC 210555Z AUTO 15004KT 5SM BR OVC004 24/24 A2995 RMK AO2
KEDC 210535Z AUTO 14006KT 4SM BR OVC003 24/24 A2995 RMK AO2
KEDC 210515Z AUTO 14005KT 5SM BR OVC004 24/24 A2996 RMK AO2
KEDC 210455Z AUTO 15004KT 6SM BR OVC004 24/24 A2996 RMK AO2
KEDC 210435Z AUTO 15004KT 8SM OVC005 23/23 A2997 RMK AO2
KEDC 210415Z AUTO 14005KT 10SM OVC006 23/23 A2997 RMK AO2
KEDC 210355Z AUTO 13003KT 10SM BKN008 BKN019 23/23 A2997 RMK AO2
KEDC 210335Z AUTO 11003KT 10SM FEW008 SCT019 23/23 A2997 RMK AO2
KEDC 210315Z AUTO 00000KT 10SM FEW011 SCT022 BKN038 23/23 A2997 RMK AO2
KEDC 210255Z AUTO 13004KT 10SM BKN011 BKN026 23/23 A2997 RMK AO2
KEDC 210235Z AUTO 11004KT 10SM BKN011 OVC016 23/23 A2996 RMK AO2
KEDC 210215Z AUTO 00000KT 10SM SCT013 BKN018 OVC090 23/23 A2996 RMK AO2
KEDC 210155Z AUTO 11004KT 10SM FEW026 FEW075 OVC090 23/23 A2995 RMK AO2
KEDC 210135Z AUTO 10003KT 10SM FEW043 OVC090 23/23 A2994 RMK AO2
KEDC 210115Z AUTO 10004KT 10SM FEW020 BKN037 OVC090 23/23 A2993 RMK AO2
KEDC 210055Z AUTO 09006KT 10SM -RA SCT035 SCT070 OVC090 23/23 A2993 RMK AO2 P0003
KEDC 210035Z AUTO 10003KT 5SM -RA FEW003 SCT060 OVC100 23/23 A2993 RMK AO2 P0002
KEDC 210015Z AUTO 11003KT 8SM -RA SCT060 BKN110 23/23 A2993 RMK AO2
KEDC 202355Z AUTO 00000KT 8SM -RA FEW034 SCT070 BKN120 23/23 A2992 RMK AO2 P0005
KEDC 202335Z AUTO 18003KT 3SM -RA FEW034 SCT040 SCT047 23/23 A2993 RMK AO2 P0004
KEDC 202315Z AUTO 14004KT 3SM -RA FEW013 23/23 A2993 RMK AO2 P0001
KEDC 202255Z AUTO 14006KT 8SM SCT015 SCT060 BKN080 24/24 A2994 RMK AO2
KEDC 202235Z AUTO 16004KT 4SM -RA FEW045 SCT070 BKN080 24/23 A2995 RMK AO2
KEDC 202215Z AUTO 14010G18KT 9SM FEW035 BKN045 OVC095 24/22 A2994 RMK AO2
KEDC 202155Z AUTO 18017G31KT 10SM FEW036 BKN047 27/21 A2992 RMK AO2
KEDC 202135Z AUTO 17007KT 10SM FEW044 29/23 A2989 RMK AO2
KEDC 202115Z AUTO 16004KT 10SM -RA CLR 29/23 A2989 RMK AO2
KEDC 202055Z AUTO 16006KT 10SM FEW048 30/22 A2989 RMK AO2
KEDC 202035Z AUTO 16007KT 10SM FEW040 30/22 A2990 RMK AO2
KEDC 202015Z AUTO 16008KT 10SM SCT040 31/23 A2990 RMK AO2
KEDC 201955Z AUTO 16008KT 10SM FEW034 SCT042 30/23 A2991 RMK AO2
KEDC 201935Z AUTO 15007KT 10SM CLR 30/24 A2992 RMK AO2
KEDC 201915Z AUTO 15007KT 10SM FEW025 29/25 A2993 RMK AO2
KEDC 201855Z AUTO 13004KT 10SM CLR 28/26 A2994 RMK AO2
KEDC 201835Z AUTO 11003KT 10SM FEW085 26/26 A2995 RMK AO2
KEDC 201815Z AUTO 26003KT 9SM FEW022 FEW060 24/24 A2997 RMK AO2
KEDC 201755Z AUTO 25006KT 4SM -RA FEW025 SCT034 SCT046 25/25 A2998 RMK AO2 P0004
KEDC 201735Z AUTO 19005KT 3SM -RA FEW025 SCT035 SCT049 26/26 A2998 RMK AO2 P0002
KEDC 201715Z AUTO 16005KT 8SM -RA FEW029 SCT041 SCT070 26/26 A2998 RMK AO2 P0001
KEDC 201655Z AUTO 18005KT 4SM -RA SCT018 BKN027 BKN065 28/25 A2999 RMK AO2
KEDC 201635Z AUTO 17010KT 10SM BKN016 BKN025 28/25 A3000 RMK AO2
KEDC 201615Z AUTO 18007KT 10SM BKN014 BKN023 BKN027 27/25 A3000 RMK AO2
KEDC 201555Z AUTO 15007KT 10SM FEW009 BKN014 27/26 A3000 RMK AO2
KEDC 201535Z AUTO 15006KT 10SM BKN008 OVC013 26/26 A3000 RMK AO2
KEDC 201515Z AUTO 14005KT 9SM OVC006 25/25 A2999 RMK AO2
KEDC 201455Z AUTO 12004KT 7SM OVC006 25/25 A2999 RMK AO2
KEDC 201435Z AUTO 13004KT 5SM BR OVC005 25/25 A2999 RMK AO2
KEDC 201415Z AUTO 12004KT 5SM BR OVC005 24/24 A2998 RMK AO2
KEDC 201355Z AUTO 13003KT 5SM BR OVC005 24/24 A2998 RMK AO2
KEDC 201335Z AUTO 15004KT 6SM BR OVC006 24/24 A2998 RMK AO2
KEDC 201315Z AUTO 14003KT 6SM BR OVC005 24/24 A2997 RMK AO2
KEDC 201255Z AUTO 15004KT OVC005 24/24 RMK AO2 PWINO
KEDC 201235Z AUTO 00000KT BKN008 OVC020 24/24 RMK AO2 PWINO
KEDC 201215Z AUTO 19003KT OVC006 24/24 RMK AO2 PWINO
KEDC 201155Z AUTO 00000KT BKN007 OVC014 24/24 RMK AO2 PWINO
KEDC 201135Z AUTO 16003KT OVC009 24/24 RMK AO2 PWINO
KEDC 201115Z AUTO 00000KT BKN011 BKN015 OVC029 24/24 RMK AO2 PWINO
KEDC 201055Z AUTO 00000KT BKN009 BKN015 OVC032 24/24 RMK AO2 PWINO
KEDC 201035Z AUTO 00000KT 23/23 RMK AO2 PWINO
KEDC 201015Z AUTO 11003KT BKN009 OVC015 23/23 RMK AO2 PWINO
KEDC 200955Z AUTO 10003KT 24/24 RMK AO2 PWINO
KEDC 200935Z AUTO 00000KT 24/24 RMK AO2 PWINO
KEDC 200915Z AUTO 16003KT 24/24 RMK AO2 PWINO
KEDC 200855Z AUTO 16003KT 24/24 RMK AO2 PWINO
KEDC 200835Z AUTO 00000KT 24/24 RMK AO2 PWINO
KEDC 200815Z AUTO 17004KT 24/24 RMK AO2 PWINO
KEDC 200755Z AUTO 18003KT 24/24 RMK AO2 PWINO
KEDC 200735Z AUTO 18003KT 24/24 RMK AO2 PWINO
KEDC 200715Z AUTO 16003KT 24/24 RMK AO2 PWINO
KEDC 200655Z AUTO 19003KT 24/24 RMK AO2 PWINO
KEDC 200635Z AUTO 00000KT 24/24 RMK AO2 PWINO
KEDC 200615Z AUTO 00000KT 24/24 RMK AO2 PWINO
KEDC 200555Z AUTO 00000KT 24/24 RMK AO2 PWINO
KEDC 200535Z AUTO 20003KT 24/24 RMK AO2 PWINO
KEDC 200515Z AUTO 20003KT 25/24 RMK AO2 PWINO
KEDC 200455Z AUTO 19003KT 25/24 RMK AO2 PWINO
KEDC 200435Z AUTO 19004KT 25/23 RMK AO2 PWINO
KEDC 200415Z AUTO 18004KT 25/23 RMK AO2 PWINO
KEDC 200355Z AUTO 17003KT 25/23 RMK AO2 PWINO
KEDC 200335Z AUTO 16004KT CLR 25/22 RMK AO2 PWINO
KEDC 200315Z AUTO 00000KT CLR 25/22 RMK AO2 PWINO
KEDC 200255Z AUTO 00000KT CLR 27/22 RMK AO2 PWINO
KEDC 200235Z AUTO 00000KT CLR 27/22 RMK AO2 PWINO
KEDC 200215Z AUTO 00000KT CLR 27/22 RMK AO2 PWINO
KEDC 200155Z AUTO 00000KT CLR 27/22 RMK AO2 PWINO
KEDC 200135Z AUTO 00000KT CLR 28/22 RMK AO2 PWINO